Time;durP1;ratioP1;P1;durP2;ratioP2;P2;SDS_P1;SDS_P2;PMS_P1;PMS_P2;Temp;Humidity;BMP_temperature;BMP_pressure;BME280_temperature;BME280_humidity;BME280_pressure;Samples;Min_cycle;Max_cycle;Signal;HPM_P1;HPM_P2
2022/03/27 00:00:52;;;;;;;20.37;6.57;;;;;;;;;;5001251;28;20948;-63
2022/03/27 00:03:21;;;;;;;13.93;6.20;;;;;;;;;;5007845;28;20833;-65
2022/03/27 00:05:50;;;;;;;16.77;6.33;;;;;;;;;;5006725;28;20201;-63
2022/03/27 00:09:15;;;;;;;13.77;6.47;;;;;;;;;;4990484;28;20965;-63
2022/03/27 00:11:56;;;;;;;17.57;6.33;;;;;;;;;;5004095;28;20247;-65
2022/03/27 00:14:43;;;;;;;18.13;6.53;;;;;;;;;;5017954;28;20267;-66
2022/03/27 00:17:32;;;;;;;14.10;6.43;;;;;;;;;;5001895;28;20193;-64
2022/03/27 00:20:04;;;;;;;16.53;6.47;;;;;;;;;;5006539;28;20208;-64
2022/03/27 00:22:31;;;;;;;19.13;6.40;;;;;;;;;;5007482;28;20601;-63
2022/03/27 00:24:58;;;;;;;16.00;6.97;;;;;;;;;;5007424;28;20192;-64
2022/03/27 00:27:25;;;;;;;12.57;6.70;;;;;;;;;;5005609;28;20958;-62
2022/03/27 00:29:52;;;;;;;15.30;6.67;;;;;;;;;;5022011;28;20227;-63
2022/03/27 00:32:20;;;;;;;19.80;6.47;;;;;;;;;;5007732;28;20196;-64
2022/03/27 00:34:48;;;;;;;12.07;7.03;;;;;;;;;;5008115;28;20199;-64
2022/03/27 00:37:14;;;;;;;17.97;7.57;;;;;;;;;;5005810;28;20225;-66
2022/03/27 00:39:41;;;;;;;18.03;6.73;;;;;;;;;;5007813;28;20211;-63
2022/03/27 00:42:08;;;;;;;14.10;7.07;;;;;;;;;;5002090;28;20642;-65
2022/03/27 00:44:36;;;;;;;17.47;7.87;;;;;;;;;;5007081;28;20251;-67
2022/03/27 00:47:02;;;;;;;17.37;7.53;;;;;;;;;;5008382;28;20185;-66
2022/03/27 00:49:29;;;;;;;16.60;7.63;;;;;;;;;;5006422;28;20860;-66
2022/03/27 00:51:56;;;;;;;15.53;7.30;;;;;;;;;;5007128;28;20208;-65
2022/03/27 00:54:22;;;;;;;18.20;7.30;;;;;;;;;;5005741;28;20215;-65
2022/03/27 00:56:49;;;;;;;18.10;7.67;;;;;;;;;;5007996;28;20287;-65
2022/03/27 00:59:16;;;;;;;17.70;7.40;;;;;;;;;;5022196;28;20265;-66
2022/03/27 01:01:44;;;;;;;21.03;7.43;;;;;;;;;;5022395;28;20220;-65
2022/03/27 01:04:11;;;;;;;19.73;7.97;;;;;;;;;;4995777;28;20635;-66
2022/03/27 01:06:41;;;;;;;17.13;7.63;;;;;;;;;;5008655;28;20227;-65
2022/03/27 01:09:49;;;;;;;18.93;7.40;;;;;;;;;;5010358;28;20259;-66
2022/03/27 01:12:17;;;;;;;18.83;6.97;;;;;;;;;;5004212;28;20930;-67
2022/03/27 01:14:44;;;;;;;15.77;7.07;;;;;;;;;;5010771;28;20218;-65
2022/03/27 01:17:16;;;;;;;18.50;6.80;;;;;;;;;;5011095;28;20220;-66
2022/03/27 01:19:48;;;;;;;14.93;7.27;;;;;;;;;;5010373;28;20185;-65
2022/03/27 01:22:15;;;;;;;21.40;7.27;;;;;;;;;;5008085;28;20196;-65
2022/03/27 01:24:43;;;;;;;18.33;7.53;;;;;;;;;;5007484;28;20192;-67
2022/03/27 01:27:10;;;;;;;15.80;7.23;;;;;;;;;;5002673;28;20212;-65
2022/03/27 01:29:37;;;;;;;17.17;7.10;;;;;;;;;;5009116;28;20228;-66
2022/03/27 01:32:06;;;;;;;15.47;7.23;;;;;;;;;;5010712;28;20308;-67
2022/03/27 01:34:33;;;;;;;14.00;6.77;;;;;;;;;;5024134;28;20189;-64
2022/03/27 01:37:09;;;;;;;11.80;6.50;;;;;;;;;;5007193;28;20633;-65
2022/03/27 01:39:37;;;;;;;18.43;7.73;;;;;;;;;;5010668;28;20224;-64
2022/03/27 01:42:05;;;;;;;16.10;7.43;;;;;;;;;;5010038;28;20189;-66
2022/03/27 01:44:32;;;;;;;16.57;7.67;;;;;;;;;;5009998;28;20652;-65
2022/03/27 01:47:01;;;;;;;16.43;7.03;;;;;;;;;;5010472;28;20810;-65
2022/03/27 01:49:28;;;;;;;16.00;7.63;;;;;;;;;;5007902;28;20288;-65
2022/03/27 01:51:54;;;;;;;14.53;7.70;;;;;;;;;;5010003;28;20270;-65
2022/03/27 01:54:22;;;;;;;20.50;6.93;;;;;;;;;;5009513;28;20196;-66
2022/03/27 01:56:49;;;;;;;14.43;7.70;;;;;;;;;;5009849;28;20739;-65
2022/03/27 01:59:16;;;;;;;15.10;7.43;;;;;;;;;;5009243;28;20213;-65
2022/03/27 02:01:42;;;;;;;19.80;8.07;;;;;;;;;;5019166;28;20301;-65
2022/03/27 02:04:09;;;;;;;19.20;7.43;;;;;;;;;;5006255;28;20937;-65
2022/03/27 02:06:37;;;;;;;12.47;6.77;;;;;;;;;;4989419;28;20201;-69
2022/03/27 02:09:04;;;;;;;23.23;7.57;;;;;;;;;;5009211;28;20193;-66
2022/03/27 02:11:31;;;;;;;15.77;7.77;;;;;;;;;;5009006;28;20189;-66
2022/03/27 02:13:57;;;;;;;19.67;7.90;;;;;;;;;;5023155;28;20863;-66
2022/03/27 02:16:24;;;;;;;18.43;8.50;;;;;;;;;;5007757;28;20207;-66
2022/03/27 02:18:51;;;;;;;16.40;7.43;;;;;;;;;;5008034;28;20220;-66
2022/03/27 02:21:18;;;;;;;13.67;6.53;;;;;;;;;;5007101;28;20200;-67
2022/03/27 02:23:45;;;;;;;16.37;7.17;;;;;;;;;;5007419;28;20210;-65
2022/03/27 02:26:11;;;;;;;12.20;6.80;;;;;;;;;;5009236;28;20196;-65
2022/03/27 02:28:40;;;;;;;18.03;7.37;;;;;;;;;;5023877;28;20225;-65
2022/03/27 02:31:07;;;;;;;12.97;7.10;;;;;;;;;;5007615;28;20215;-67
2022/03/27 02:33:34;;;;;;;11.13;7.10;;;;;;;;;;5004191;28;20296;-65
2022/03/27 02:36:01;;;;;;;19.83;7.47;;;;;;;;;;5020369;28;20699;-66
2022/03/27 02:38:27;;;;;;;16.70;7.43;;;;;;;;;;4989678;28;20622;-66
2022/03/27 02:40:54;;;;;;;22.47;8.03;;;;;;;;;;5009320;28;20254;-66
2022/03/27 02:43:20;;;;;;;14.40;7.10;;;;;;;;;;5007059;28;20712;-67
2022/03/27 02:45:48;;;;;;;16.80;7.80;;;;;;;;;;5007510;28;20298;-66
2022/03/27 02:48:14;;;;;;;22.37;7.93;;;;;;;;;;5008351;28;20201;-65
2022/03/27 02:50:43;;;;;;;14.50;7.10;;;;;;;;;;5008796;28;20682;-67
2022/03/27 02:53:11;;;;;;;18.77;7.90;;;;;;;;;;5007448;28;20628;-65
2022/03/27 02:55:38;;;;;;;22.33;7.93;;;;;;;;;;5007735;28;20189;-65
2022/03/27 02:58:05;;;;;;;16.20;7.53;;;;;;;;;;5008852;28;20258;-67
2022/03/27 03:00:31;;;;;;;16.30;7.60;;;;;;;;;;5008127;28;20223;-66
2022/03/27 03:02:58;;;;;;;13.90;7.37;;;;;;;;;;5008820;28;20200;-68
2022/03/27 03:05:25;;;;;;;13.30;7.30;;;;;;;;;;5007641;28;20208;-67
2022/03/27 03:07:52;;;;;;;18.67;7.90;;;;;;;;;;5005019;28;20236;-65
2022/03/27 03:10:19;;;;;;;13.57;6.57;;;;;;;;;;5000670;28;20627;-66
2022/03/27 03:12:46;;;;;;;17.77;7.40;;;;;;;;;;5008539;28;20200;-65
2022/03/27 03:15:13;;;;;;;16.87;8.17;;;;;;;;;;5008407;28;21021;-66
2022/03/27 03:17:39;;;;;;;15.93;7.03;;;;;;;;;;4999603;28;20195;-67
2022/03/27 03:20:07;;;;;;;13.23;7.17;;;;;;;;;;5009329;28;20263;-62
2022/03/27 03:22:34;;;;;;;17.03;7.80;;;;;;;;;;5007856;28;20270;-65
2022/03/27 03:25:01;;;;;;;17.20;8.07;;;;;;;;;;5019528;28;20193;-65
2022/03/27 03:27:28;;;;;;;12.33;7.23;;;;;;;;;;4996973;28;20189;-67
2022/03/27 03:29:54;;;;;;;12.27;6.90;;;;;;;;;;5015578;28;20631;-65
2022/03/27 03:32:23;;;;;;;13.03;7.20;;;;;;;;;;5008044;28;20289;-67
2022/03/27 03:34:51;;;;;;;14.87;7.53;;;;;;;;;;5008570;28;20550;-67
2022/03/27 03:37:17;;;;;;;21.13;8.17;;;;;;;;;;5008860;28;20394;-66
2022/03/27 03:39:45;;;;;;;12.93;7.20;;;;;;;;;;5007141;28;20212;-65
2022/03/27 03:42:11;;;;;;;17.60;7.73;;;;;;;;;;5005268;28;20195;-65
2022/03/27 03:44:38;;;;;;;16.00;7.67;;;;;;;;;;5004743;28;20197;-65
2022/03/27 03:47:05;;;;;;;14.77;7.20;;;;;;;;;;5008726;28;20258;-65
2022/03/27 03:49:31;;;;;;;14.43;7.23;;;;;;;;;;5008701;28;20519;-64
2022/03/27 03:51:58;;;;;;;18.53;7.40;;;;;;;;;;5004541;28;20201;-65
2022/03/27 03:54:24;;;;;;;15.27;7.67;;;;;;;;;;5006938;28;20224;-63
2022/03/27 03:56:51;;;;;;;14.50;8.50;;;;;;;;;;5008464;28;20717;-65
2022/03/27 03:59:18;;;;;;;15.00;7.80;;;;;;;;;;5006942;28;20304;-67
2022/03/27 04:01:45;;;;;;;18.47;8.40;;;;;;;;;;5006770;28;20663;-65
2022/03/27 04:04:12;;;;;;;17.73;8.00;;;;;;;;;;5008102;28;20575;-65
2022/03/27 04:06:38;;;;;;;20.80;8.17;;;;;;;;;;5006751;28;20246;-63
2022/03/27 04:09:05;;;;;;;20.57;8.53;;;;;;;;;;5008240;28;20664;-63
2022/03/27 04:11:32;;;;;;;14.53;7.77;;;;;;;;;;5006695;28;20307;-65
2022/03/27 04:13:58;;;;;;;13.73;7.87;;;;;;;;;;5006722;28;20201;-64
2022/03/27 04:16:25;;;;;;;16.43;7.90;;;;;;;;;;5007235;28;20189;-64
2022/03/27 04:18:51;;;;;;;15.40;8.27;;;;;;;;;;5007084;28;20193;-63
2022/03/27 04:21:18;;;;;;;16.57;8.03;;;;;;;;;;5022900;28;20257;-63
2022/03/27 04:23:44;;;;;;;14.90;7.77;;;;;;;;;;5007940;28;20275;-64
2022/03/27 04:26:12;;;;;;;17.73;8.30;;;;;;;;;;5006288;28;20192;-64
2022/03/27 04:28:38;;;;;;;16.43;8.03;;;;;;;;;;5007620;28;20201;-64
2022/03/27 04:31:06;;;;;;;15.73;8.57;;;;;;;;;;5007364;28;20702;-64
2022/03/27 04:33:33;;;;;;;18.60;8.37;;;;;;;;;;5007137;28;20201;-64
2022/03/27 04:36:02;;;;;;;21.50;9.20;;;;;;;;;;5008364;28;20208;-63
2022/03/27 04:38:29;;;;;;;16.13;9.07;;;;;;;;;;5014197;28;20228;-64
2022/03/27 04:40:55;;;;;;;22.47;8.67;;;;;;;;;;5011050;28;20236;-64
2022/03/27 04:43:25;;;;;;;20.53;9.23;;;;;;;;;;5010716;28;20197;-63
2022/03/27 04:45:52;;;;;;;18.87;9.17;;;;;;;;;;5012075;28;20185;-63
2022/03/27 04:48:19;;;;;;;21.20;8.83;;;;;;;;;;5010987;28;20197;-64
2022/03/27 04:50:46;;;;;;;18.13;8.47;;;;;;;;;;5010029;28;20291;-66
2022/03/27 04:53:13;;;;;;;18.60;8.30;;;;;;;;;;5010085;28;20223;-63
2022/03/27 04:55:39;;;;;;;17.20;8.40;;;;;;;;;;5000819;28;20620;-64
2022/03/27 04:58:10;;;;;;;20.70;8.70;;;;;;;;;;5009893;28;20204;-68
2022/03/27 05:00:37;;;;;;;14.80;8.93;;;;;;;;;;5011077;28;20191;-66
2022/03/27 05:03:05;;;;;;;15.93;8.70;;;;;;;;;;5004377;28;20204;-63
2022/03/27 05:05:32;;;;;;;23.07;9.20;;;;;;;;;;5011161;28;20299;-64
2022/03/27 05:07:58;;;;;;;23.77;9.20;;;;;;;;;;5011761;28;20185;-63
2022/03/27 05:10:25;;;;;;;17.53;8.90;;;;;;;;;;5009447;28;20263;-65
2022/03/27 05:12:52;;;;;;;23.80;9.13;;;;;;;;;;5020167;28;20283;-65
2022/03/27 05:15:19;;;;;;;24.33;9.40;;;;;;;;;;5009859;28;20193;-63
2022/03/27 05:17:46;;;;;;;19.20;8.40;;;;;;;;;;5011560;28;20529;-64
2022/03/27 05:20:14;;;;;;;21.33;9.20;;;;;;;;;;5010383;28;20185;-65
2022/03/27 05:22:42;;;;;;;23.27;9.00;;;;;;;;;;5010826;28;20252;-63
2022/03/27 05:25:11;;;;;;;17.70;8.77;;;;;;;;;;5023936;28;20578;-64
2022/03/27 05:27:46;;;;;;;20.60;9.30;;;;;;;;;;5018459;28;20190;-65
2022/03/27 05:30:15;;;;;;;19.43;8.50;;;;;;;;;;5007424;28;20275;-64
2022/03/27 05:32:42;;;;;;;22.80;8.40;;;;;;;;;;5010107;28;20192;-64
2022/03/27 05:35:09;;;;;;;18.63;8.50;;;;;;;;;;5007632;28;20192;-63
2022/03/27 05:37:38;;;;;;;22.07;8.10;;;;;;;;;;5014770;28;20272;-67
2022/03/27 05:40:07;;;;;;;25.80;8.43;;;;;;;;;;5007747;28;20224;-64
2022/03/27 05:42:34;;;;;;;20.87;7.87;;;;;;;;;;5005383;28;20864;-65
2022/03/27 05:45:02;;;;;;;23.10;8.37;;;;;;;;;;5007833;28;20657;-64
2022/03/27 05:47:29;;;;;;;25.73;7.37;;;;;;;;;;5010045;28;20190;-66
2022/03/27 05:49:56;;;;;;;17.97;7.67;;;;;;;;;;5009670;28;20309;-64
2022/03/27 05:52:24;;;;;;;15.77;7.47;;;;;;;;;;5007868;28;20205;-64
2022/03/27 05:54:51;;;;;;;21.00;7.97;;;;;;;;;;5010514;28;20822;-65
2022/03/27 05:57:18;;;;;;;24.20;7.10;;;;;;;;;;5010352;28;20196;-64
2022/03/27 05:59:46;;;;;;;15.70;6.80;;;;;;;;;;5003107;28;20204;-64
2022/03/27 06:02:13;;;;;;;19.10;7.20;;;;;;;;;;5008301;28;20189;-65
2022/03/27 06:04:41;;;;;;;20.50;6.87;;;;;;;;;;5009038;28;20189;-63
2022/03/27 06:07:09;;;;;;;14.70;6.53;;;;;;;;;;5009044;28;20247;-66
2022/03/27 06:09:35;;;;;;;17.33;7.40;;;;;;;;;;5009450;28;20216;-65
2022/03/27 06:12:04;;;;;;;15.43;6.63;;;;;;;;;;5025369;28;20263;-65
2022/03/27 06:14:31;;;;;;;15.20;6.43;;;;;;;;;;5008597;28;20521;-63
2022/03/27 06:16:58;;;;;;;13.40;6.63;;;;;;;;;;5009084;28;20224;-65
2022/03/27 06:19:26;;;;;;;13.93;6.90;;;;;;;;;;5007831;28;20268;-63
2022/03/27 06:21:52;;;;;;;14.70;6.40;;;;;;;;;;5024379;28;20243;-64
2022/03/27 06:24:19;;;;;;;18.83;6.23;;;;;;;;;;5009423;28;21038;-63
2022/03/27 06:26:46;;;;;;;16.97;6.43;;;;;;;;;;5007939;28;20284;-67
2022/03/27 06:29:14;;;;;;;16.20;6.07;;;;;;;;;;5008348;28;20231;-64
2022/03/27 06:31:41;;;;;;;12.10;5.73;;;;;;;;;;5004576;28;21860;-65
2022/03/27 06:34:07;;;;;;;15.13;5.60;;;;;;;;;;5016623;28;20201;-64
2022/03/27 06:36:35;;;;;;;15.43;5.43;;;;;;;;;;5006477;28;20221;-65
2022/03/27 06:39:03;;;;;;;15.30;5.67;;;;;;;;;;5009356;28;20238;-65
2022/03/27 06:41:29;;;;;;;13.63;6.13;;;;;;;;;;5008293;28;20196;-63
2022/03/27 06:43:56;;;;;;;12.93;5.67;;;;;;;;;;4993367;28;20860;-64
2022/03/27 06:46:22;;;;;;;12.07;5.53;;;;;;;;;;5002029;28;20216;-64
2022/03/27 06:48:50;;;;;;;14.03;6.17;;;;;;;;;;5005094;28;20201;-63
2022/03/27 06:51:17;;;;;;;14.53;5.67;;;;;;;;;;5003817;28;20355;-63
2022/03/27 06:53:46;;;;;;;12.73;5.20;;;;;;;;;;5008980;28;20729;-64
2022/03/27 06:56:13;;;;;;;8.60;4.53;;;;;;;;;;5008383;28;20239;-65
2022/03/27 06:58:40;;;;;;;12.23;4.40;;;;;;;;;;5003017;28;20203;-63
2022/03/27 07:03:51;;;;;;;13.87;4.50;;;;;;;;;;5009838;28;20258;-63
2022/03/27 07:06:18;;;;;;;12.03;4.70;;;;;;;;;;5007266;28;20204;-66
2022/03/27 07:08:45;;;;;;;13.83;4.50;;;;;;;;;;5008210;28;20301;-64
2022/03/27 07:11:12;;;;;;;11.37;5.30;;;;;;;;;;5008972;28;20217;-64
2022/03/27 07:13:38;;;;;;;7.97;4.37;;;;;;;;;;5004534;28;20192;-66
2022/03/27 07:16:05;;;;;;;9.97;4.73;;;;;;;;;;4998387;28;20197;-64
2022/03/27 07:18:32;;;;;;;9.10;4.80;;;;;;;;;;5006065;28;20197;-64
2022/03/27 07:20:59;;;;;;;9.43;4.57;;;;;;;;;;5007725;28;20597;-64
2022/03/27 07:23:26;;;;;;;10.93;4.47;;;;;;;;;;5007002;28;20275;-64
2022/03/27 07:25:55;;;;;;;10.30;4.47;;;;;;;;;;5007444;28;20875;-64
2022/03/27 07:28:22;;;;;;;7.03;3.90;;;;;;;;;;5006217;28;20243;-65
2022/03/27 07:30:49;;;;;;;9.77;4.67;;;;;;;;;;5006529;28;20213;-63
2022/03/27 07:33:17;;;;;;;9.50;4.70;;;;;;;;;;5006277;28;20279;-64
2022/03/27 07:35:44;;;;;;;9.87;4.50;;;;;;;;;;5008655;28;20800;-65
2022/03/27 07:38:10;;;;;;;10.00;4.60;;;;;;;;;;5021018;28;20326;-65
2022/03/27 07:40:38;;;;;;;9.67;4.77;;;;;;;;;;5005958;28;20235;-64
2022/03/27 07:43:04;;;;;;;9.87;4.57;;;;;;;;;;5007422;28;20200;-65
2022/03/27 07:45:32;;;;;;;8.93;5.00;;;;;;;;;;5023260;28;20260;-63
2022/03/27 07:47:59;;;;;;;8.30;4.70;;;;;;;;;;5004945;28;20745;-64
2022/03/27 07:50:27;;;;;;;14.67;5.47;;;;;;;;;;5004113;28;20216;-66
2022/03/27 07:52:54;;;;;;;11.60;5.47;;;;;;;;;;5005453;28;20674;-66
2022/03/27 07:55:21;;;;;;;12.37;4.70;;;;;;;;;;5016055;28;20189;-64
2022/03/27 07:57:49;;;;;;;10.97;4.73;;;;;;;;;;4999364;28;20281;-66
2022/03/27 08:00:16;;;;;;;18.80;5.47;;;;;;;;;;5002626;28;20327;-66
2022/03/27 08:02:45;;;;;;;10.20;4.17;;;;;;;;;;5006325;28;20196;-64
2022/03/27 08:05:12;;;;;;;12.20;4.40;;;;;;;;;;5007301;28;20196;-64
2022/03/27 08:07:39;;;;;;;8.67;4.43;;;;;;;;;;5009207;28;20266;-64
2022/03/27 08:10:07;;;;;;;12.73;4.50;;;;;;;;;;5006093;28;21009;-63
2022/03/27 08:12:35;;;;;;;9.97;4.53;;;;;;;;;;5007247;28;20228;-65
2022/03/27 08:15:03;;;;;;;13.83;4.50;;;;;;;;;;5010934;28;20254;-65
2022/03/27 08:17:30;;;;;;;11.17;4.63;;;;;;;;;;5005034;28;20203;-64
2022/03/27 08:20:00;;;;;;;11.83;4.37;;;;;;;;;;5009837;28;20188;-64
2022/03/27 08:22:26;;;;;;;11.97;4.57;;;;;;;;;;5011566;28;20271;-66
2022/03/27 08:24:53;;;;;;;8.70;4.10;;;;;;;;;;5011596;28;20689;-66
2022/03/27 08:27:32;;;;;;;14.40;4.30;;;;;;;;;;5005286;28;20204;-65
2022/03/27 08:29:59;;;;;;;6.90;3.80;;;;;;;;;;5008847;28;20283;-64
2022/03/27 08:32:26;;;;;;;10.00;4.17;;;;;;;;;;5008600;28;20586;-66
2022/03/27 08:34:52;;;;;;;7.70;3.70;;;;;;;;;;5009861;28;20585;-65
2022/03/27 08:37:20;;;;;;;6.70;3.60;;;;;;;;;;5010556;28;20271;-63
2022/03/27 08:39:46;;;;;;;12.63;4.00;;;;;;;;;;5007855;28;20212;-64
2022/03/27 08:42:20;;;;;;;9.03;3.70;;;;;;;;;;4990490;28;20207;-64
2022/03/27 08:44:46;;;;;;;7.63;3.73;;;;;;;;;;5005620;28;20287;-65
2022/03/27 08:47:28;;;;;;;8.67;3.77;;;;;;;;;;5005436;28;20189;-64
2022/03/27 08:50:11;;;;;;;10.73;3.30;;;;;;;;;;4998743;28;20804;-66
2022/03/27 08:52:59;;;;;;;11.10;4.47;;;;;;;;;;5005158;28;20196;-66
2022/03/27 08:55:54;;;;;;;12.90;4.00;;;;;;;;;;5005774;28;20338;-65
2022/03/27 08:58:27;;;;;;;10.17;3.73;;;;;;;;;;5013405;28;20213;-62
2022/03/27 09:00:54;;;;;;;6.97;3.47;;;;;;;;;;5004728;28;20217;-64
2022/03/27 09:03:21;;;;;;;14.20;3.53;;;;;;;;;;5010626;28;20304;-63
2022/03/27 09:05:48;;;;;;;10.87;3.37;;;;;;;;;;5009340;28;20697;-65
2022/03/27 09:08:15;;;;;;;8.10;3.10;;;;;;;;;;5005428;28;20204;-65
2022/03/27 09:10:42;;;;;;;6.80;4.17;;;;;;;;;;5027865;28;20343;-64
2022/03/27 09:13:19;;;;;;;9.33;3.77;;;;;;;;;;5005899;28;20185;-64
2022/03/27 09:15:56;;;;;;;10.00;4.13;;;;;;;;;;5009085;28;20227;-65
2022/03/27 09:18:23;;;;;;;9.33;3.30;;;;;;;;;;5025378;28;20272;-65
2022/03/27 09:20:54;;;;;;;11.03;4.00;;;;;;;;;;5023677;28;20260;-65
2022/03/27 09:23:27;;;;;;;8.97;3.33;;;;;;;;;;5007468;28;20232;-65
2022/03/27 09:25:56;;;;;;;6.30;2.80;;;;;;;;;;4989435;28;20192;-65
2022/03/27 09:28:47;;;;;;;6.03;2.93;;;;;;;;;;5005910;28;20197;-63
2022/03/27 09:31:14;;;;;;;6.13;3.20;;;;;;;;;;5002762;28;20229;-65
2022/03/27 09:34:03;;;;;;;4.60;2.70;;;;;;;;;;4998832;28;20197;-64
2022/03/27 09:36:40;;;;;;;7.60;3.30;;;;;;;;;;5004608;28;20278;-64
2022/03/27 09:39:16;;;;;;;5.53;3.07;;;;;;;;;;5007530;28;20258;-64
2022/03/27 09:41:49;;;;;;;8.47;4.20;;;;;;;;;;5005923;28;20207;-65
2022/03/27 09:44:21;;;;;;;13.27;3.40;;;;;;;;;;5004510;28;20197;-64
2022/03/27 09:46:59;;;;;;;8.20;3.30;;;;;;;;;;5005270;28;20646;-67
2022/03/27 09:49:49;;;;;;;7.37;3.30;;;;;;;;;;5017784;28;20204;-64
2022/03/27 09:52:19;;;;;;;10.80;3.30;;;;;;;;;;5019401;28;20207;-65
2022/03/27 09:54:59;;;;;;;4.70;3.27;;;;;;;;;;5008078;28;20197;-63
2022/03/27 09:57:31;;;;;;;7.87;3.40;;;;;;;;;;4991444;28;20200;-65
2022/03/27 10:00:12;;;;;;;12.33;3.90;;;;;;;;;;5006497;28;21383;-64
2022/03/27 10:02:43;;;;;;;8.33;3.60;;;;;;;;;;5001991;28;20195;-66
2022/03/27 10:05:14;;;;;;;11.80;3.70;;;;;;;;;;5006973;28;20267;-65
2022/03/27 10:07:52;;;;;;;9.93;3.47;;;;;;;;;;5004828;28;20784;-64
2022/03/27 10:10:24;;;;;;;7.53;3.40;;;;;;;;;;5004293;28;20306;-66
2022/03/27 10:12:55;;;;;;;6.90;3.10;;;;;;;;;;5006889;28;20196;-64
2022/03/27 10:15:23;;;;;;;8.57;3.43;;;;;;;;;;5023590;28;20203;-65
2022/03/27 10:18:09;;;;;;;6.70;3.10;;;;;;;;;;5008648;28;20192;-64
2022/03/27 10:20:37;;;;;;;8.40;3.80;;;;;;;;;;5009827;28;20203;-68
2022/03/27 10:23:14;;;;;;;9.57;3.83;;;;;;;;;;5020061;28;20775;-64
2022/03/27 10:25:48;;;;;;;8.43;4.40;;;;;;;;;;5006171;28;20694;-65
2022/03/27 10:28:17;;;;;;;9.93;4.23;;;;;;;;;;5009318;28;20220;-63
2022/03/27 10:30:44;;;;;;;10.23;3.97;;;;;;;;;;5006194;28;20741;-65
2022/03/27 10:33:11;;;;;;;9.50;3.90;;;;;;;;;;5004240;28;20247;-64
2022/03/27 10:35:55;;;;;;;11.13;3.90;;;;;;;;;;5006616;28;20220;-62
2022/03/27 10:38:58;;;;;;;6.43;3.67;;;;;;;;;;5021983;28;20206;-68
2022/03/27 10:41:37;;;;;;;6.67;3.67;;;;;;;;;;5001913;28;20188;-63
2022/03/27 10:44:24;;;;;;;10.07;3.70;;;;;;;;;;5006012;28;20192;-66
2022/03/27 10:47:16;;;;;;;9.00;3.60;;;;;;;;;;5008345;28;21967;-65
2022/03/27 10:50:05;;;;;;;8.87;3.80;;;;;;;;;;4987690;28;20275;-68
2022/03/27 10:52:36;;;;;;;8.00;3.47;;;;;;;;;;4984358;28;20193;-65
2022/03/27 10:55:09;;;;;;;8.03;4.07;;;;;;;;;;5006671;28;20199;-64
2022/03/27 10:57:41;;;;;;;9.37;4.10;;;;;;;;;;5008182;28;20228;-64
2022/03/27 11:00:10;;;;;;;8.10;3.50;;;;;;;;;;4999798;28;20781;-64
2022/03/27 11:02:47;;;;;;;8.50;3.83;;;;;;;;;;5006534;28;20197;-64
2022/03/27 11:05:32;;;;;;;8.20;3.47;;;;;;;;;;5008350;28;20193;-65
2022/03/27 11:08:16;;;;;;;12.40;3.87;;;;;;;;;;5009070;28;20224;-64
2022/03/27 11:10:55;;;;;;;11.13;4.53;;;;;;;;;;5004517;28;20220;-63
2022/03/27 11:13:28;;;;;;;8.60;4.40;;;;;;;;;;5002256;28;20205;-65
2022/03/27 11:16:11;;;;;;;9.73;4.13;;;;;;;;;;5008067;28;20660;-64
2022/03/27 11:18:46;;;;;;;6.97;3.80;;;;;;;;;;4991510;28;20196;-63
2022/03/27 11:21:14;;;;;;;12.37;4.00;;;;;;;;;;5016756;28;20195;-63
2022/03/27 11:23:45;;;;;;;7.97;3.57;;;;;;;;;;5006666;28;20212;-64
2022/03/27 11:26:20;;;;;;;7.73;3.60;;;;;;;;;;5008440;28;20193;-66
2022/03/27 11:28:53;;;;;;;9.83;3.87;;;;;;;;;;5006410;28;20256;-65
2022/03/27 11:31:31;;;;;;;6.03;4.00;;;;;;;;;;5007629;28;20204;-63
2022/03/27 11:34:11;;;;;;;6.27;3.33;;;;;;;;;;5007830;28;20227;-63
2022/03/27 11:36:39;;;;;;;10.67;3.67;;;;;;;;;;5007411;28;20205;-63
2022/03/27 11:39:11;;;;;;;6.63;3.50;;;;;;;;;;4996635;28;20197;-63
2022/03/27 11:41:43;;;;;;;7.23;3.40;;;;;;;;;;4997443;28;20211;-63
2022/03/27 11:47:33;;;;;;;7.60;3.80;;;;;;;;;;5007673;28;20193;-67
2022/03/27 11:49:59;;;;;;;6.33;3.30;;;;;;;;;;4990060;28;20858;-65
2022/03/27 11:52:26;;;;;;;12.43;3.80;;;;;;;;;;5006811;28;20665;-66
2022/03/27 11:55:07;;;;;;;7.83;3.40;;;;;;;;;;5008691;28;20199;-65
2022/03/27 11:57:46;;;;;;;8.47;3.50;;;;;;;;;;4990623;28;20193;-63
2022/03/27 12:00:15;;;;;;;6.67;3.33;;;;;;;;;;5005532;28;20271;-65
2022/03/27 12:02:46;;;;;;;6.10;3.20;;;;;;;;;;5008249;28;20607;-63
2022/03/27 12:05:13;;;;;;;8.10;3.40;;;;;;;;;;5007304;28;20555;-63
2022/03/27 12:07:52;;;;;;;8.60;3.50;;;;;;;;;;5006990;28;20196;-65
2022/03/27 12:10:19;;;;;;;9.40;3.63;;;;;;;;;;4987974;28;20642;-65
2022/03/27 12:13:08;;;;;;;4.43;3.30;;;;;;;;;;5005801;28;20228;-66
2022/03/27 12:15:49;;;;;;;7.60;3.70;;;;;;;;;;4986315;28;20224;-64
2022/03/27 12:18:40;;;;;;;9.37;3.10;;;;;;;;;;5007132;28;20197;-66
2022/03/27 12:21:14;;;;;;;9.80;3.20;;;;;;;;;;5006293;28;20205;-65
2022/03/27 12:23:47;;;;;;;6.47;3.07;;;;;;;;;;5008242;28;20197;-63
2022/03/27 12:31:55;;;;;;;5.00;3.00;;;;;;;;;;5008213;28;20196;-65
2022/03/27 12:34:28;;;;;;;4.27;2.73;;;;;;;;;;5007640;28;20578;-64
2022/03/27 12:37:12;;;;;;;6.50;3.17;;;;;;;;;;5005950;28;20566;-65
2022/03/27 12:39:48;;;;;;;5.17;3.07;;;;;;;;;;5003322;28;20197;-63
2022/03/27 12:42:36;;;;;;;6.90;3.13;;;;;;;;;;4991293;28;20231;-65
2022/03/27 12:45:10;;;;;;;7.70;3.30;;;;;;;;;;5007218;28;20200;-64
2022/03/27 12:47:38;;;;;;;6.23;3.20;;;;;;;;;;5007194;28;20741;-64
2022/03/27 12:50:07;;;;;;;12.00;3.47;;;;;;;;;;5000407;28;20212;-66
2022/03/27 12:52:42;;;;;;;10.50;3.50;;;;;;;;;;5007934;28;20192;-65
2022/03/27 12:55:09;;;;;;;5.57;3.27;;;;;;;;;;5000036;28;20202;-63
2022/03/27 12:57:59;;;;;;;5.03;2.97;;;;;;;;;;5008126;28;20196;-66
2022/03/27 13:00:40;;;;;;;5.77;3.40;;;;;;;;;;4987773;28;20189;-67
2022/03/27 13:03:25;;;;;;;7.53;3.10;;;;;;;;;;5003555;28;20197;-67
2022/03/27 13:06:03;;;;;;;6.10;2.93;;;;;;;;;;5027084;28;20582;-66
2022/03/27 13:08:41;;;;;;;4.67;3.00;;;;;;;;;;5019896;28;20195;-64
2022/03/27 13:11:21;;;;;;;5.03;2.60;;;;;;;;;;4994332;28;20928;-66
2022/03/27 13:13:58;;;;;;;5.20;2.90;;;;;;;;;;5010440;28;20227;-64
2022/03/27 13:16:27;;;;;;;7.43;2.60;;;;;;;;;;5011936;28;20184;-66
2022/03/27 13:19:16;;;;;;;4.70;2.97;;;;;;;;;;5010708;28;20594;-65
2022/03/27 13:21:47;;;;;;;5.50;3.10;;;;;;;;;;5007445;28;20181;-66
2022/03/27 13:24:15;;;;;;;4.97;2.83;;;;;;;;;;5011240;28;20181;-65
2022/03/27 13:26:48;;;;;;;6.30;3.57;;;;;;;;;;5011033;28;20634;-65
2022/03/27 13:29:16;;;;;;;6.50;3.00;;;;;;;;;;5010639;28;20195;-66
2022/03/27 13:31:44;;;;;;;4.03;2.70;;;;;;;;;;4990654;28;20216;-66
2022/03/27 13:34:15;;;;;;;3.07;2.20;;;;;;;;;;5009275;28;20196;-66
2022/03/27 13:36:44;;;;;;;5.23;2.83;;;;;;;;;;5025492;28;20282;-67
2022/03/27 13:39:11;;;;;;;5.77;2.50;;;;;;;;;;5010680;28;20534;-65
2022/03/27 13:44:28;;;;;;;3.90;2.60;;;;;;;;;;5023471;28;20204;-65
2022/03/27 13:46:56;;;;;;;5.03;2.40;;;;;;;;;;5025300;28;20196;-65
2022/03/27 13:49:24;;;;;;;4.47;2.70;;;;;;;;;;5000480;28;20186;-66
2022/03/27 13:51:51;;;;;;;2.97;2.40;;;;;;;;;;5016092;28;20204;-65
2022/03/27 13:54:17;;;;;;;6.10;2.47;;;;;;;;;;5010340;28;20185;-64
2022/03/27 13:56:44;;;;;;;5.80;2.77;;;;;;;;;;5010855;28;20255;-66
2022/03/27 13:59:13;;;;;;;4.23;2.33;;;;;;;;;;5010145;28;20335;-63
2022/03/27 14:01:41;;;;;;;4.13;2.47;;;;;;;;;;5009124;28;20189;-67
2022/03/27 14:04:10;;;;;;;3.83;2.80;;;;;;;;;;5010379;28;20189;-66
2022/03/27 14:06:39;;;;;;;5.17;2.70;;;;;;;;;;5010656;28;20193;-67
2022/03/27 14:09:05;;;;;;;5.70;2.40;;;;;;;;;;4989891;28;20189;-65
2022/03/27 14:11:33;;;;;;;5.63;2.43;;;;;;;;;;5000196;28;20646;-66
2022/03/27 14:14:00;;;;;;;5.50;2.70;;;;;;;;;;4996121;28;20284;-65
2022/03/27 14:16:28;;;;;;;4.57;2.60;;;;;;;;;;5008821;28;20229;-68
2022/03/27 14:18:55;;;;;;;4.53;2.50;;;;;;;;;;5010506;28;20254;-66
2022/03/27 14:21:22;;;;;;;5.67;2.60;;;;;;;;;;5008058;28;20188;-64
2022/03/27 14:23:49;;;;;;;3.33;2.40;;;;;;;;;;5007733;28;20204;-67
2022/03/27 14:26:17;;;;;;;3.57;2.50;;;;;;;;;;5010024;28;20204;-63
2022/03/27 14:28:44;;;;;;;3.83;2.27;;;;;;;;;;5009258;28;20220;-66
2022/03/27 14:31:10;;;;;;;8.30;2.40;;;;;;;;;;5008733;28;20232;-65
2022/03/27 14:33:37;;;;;;;5.37;2.47;;;;;;;;;;5007734;28;20196;-65
2022/03/27 14:36:03;;;;;;;5.40;2.60;;;;;;;;;;5010122;28;20205;-65
2022/03/27 14:38:31;;;;;;;4.57;2.07;;;;;;;;;;5001515;28;20292;-66
2022/03/27 14:41:00;;;;;;;3.47;2.23;;;;;;;;;;5023766;28;20205;-67
2022/03/27 14:43:27;;;;;;;3.07;2.10;;;;;;;;;;5004497;28;20185;-63
2022/03/27 14:45:54;;;;;;;4.43;2.40;;;;;;;;;;5008580;28;20184;-64
2022/03/27 14:48:21;;;;;;;3.57;2.43;;;;;;;;;;5008256;28;20189;-65
2022/03/27 14:50:48;;;;;;;7.03;2.43;;;;;;;;;;5009676;28;20744;-64
2022/03/27 14:53:15;;;;;;;6.60;2.10;;;;;;;;;;5007302;28;20193;-64
2022/03/27 14:55:58;;;;;;;5.23;2.47;;;;;;;;;;5004614;28;20224;-65
2022/03/27 14:58:30;;;;;;;4.53;2.30;;;;;;;;;;5000262;28;20266;-63
2022/03/27 15:00:59;;;;;;;6.00;2.40;;;;;;;;;;5003887;28;20189;-64
2022/03/27 15:03:26;;;;;;;4.53;1.93;;;;;;;;;;5003561;28;20246;-63
2022/03/27 15:05:53;;;;;;;5.03;2.20;;;;;;;;;;5007690;28;20189;-63
2022/03/27 15:08:20;;;;;;;5.47;2.53;;;;;;;;;;5009430;28;20936;-65